Flight Track Log - Related Links

Times and Time Zones

All times are in EDT time to prevent confusion due to time zone crossing. See the SWA542 flight status page for this flight to view local times or setup timezone preferences in your user account.

Time Position Orientation Groundspeed Altitude Reporting Facility
EDT Latitude Longitude Course Direction KTS MPH feet Rate Location/Type
Sun 11:19:17 AM 28.4000 -81.3000 221° Southwest 151 174 700  Level Orlando TRACON
Sun 11:19:59 AM 28.3833 -81.3167 221° Southwest 191 220 1,800 2,059 Climbing Orlando TRACON
Sun 11:20:59 AM 28.3500 -81.3833 240° Southwest 258 297 4,200 2,350 Climbing Orlando TRACON
Sun 11:21:59 AM 28.3500 -81.4667 270° West 289 333 6,500 2,832 Climbing Orlando TRACON
Sun 11:24:16 AM 28.3550 -81.6897 272° West 326 375 13,500 3,107 Climbing Jacksonville Center
Sun 11:25:16 AM 28.3436 -81.8031 264° West 350 403 16,700 2,900 Climbing Jacksonville Center
Sun 11:26:16 AM 28.3194 -81.9186 257° West 366 421 19,300 2,650 Climbing Jacksonville Center
Sun 11:27:16 AM 28.2953 -82.0369 257° West 379 436 22,000 2,200 Climbing Jacksonville Center
Sun 11:28:16 AM 28.2731 -82.1642 259° West 393 452 23,700 1,500 Climbing Jacksonville Center
Sun 11:29:16 AM 28.2425 -82.2894 255° West 406 467 25,000 1,150 Climbing Jacksonville Center
Sun 11:30:16 AM 28.2158 -82.4214 257° West 418 481 26,000 1,100 Climbing Jacksonville Center
Sun 11:31:16 AM 28.2058 -82.5581 265° West 432 497 27,200 1,850 Climbing Jacksonville Center
Sun 11:32:16 AM 28.2292 -82.6900 281° West 427 491 29,700 1,400 Climbing Jacksonville Center
Sun 11:33:16 AM 28.2481 -82.8219 279° West 427 491 30,000 168 Climbing Jacksonville Center
Sun 11:34:03 AM 28.2642 -82.9253 280° West 425 489 30,000  Level Miami Center
Sun 11:35:03 AM 28.2836 -83.0558 280° West 425 489 30,000  Level Miami Center
Sun 11:36:03 AM 28.3050 -83.1867 281° West 425 489 30,000  Level Miami Center
Sun 11:37:03 AM 28.3264 -83.3175 281° West 425 489 30,000  Level Miami Center
Sun 11:38:03 AM 28.3456 -83.4458 280° West 425 489 30,000  Level Miami Center
Sun 11:39:40 AM 28.3750 -83.6547 279° West 419 482 30,000  Level Jacksonville Center
Sun 11:40:40 AM 28.3953 -83.7797 280° West 414 476 30,000  Level Jacksonville Center
Sun 11:41:40 AM 28.4131 -83.9097 279° West 414 476 30,000  Level Jacksonville Center
Sun 11:42:40 AM 28.4328 -84.0469 279° West 420 483 30,000  Level Jacksonville Center
Sun 11:43:40 AM 28.4522 -84.1794 280° West 431 496 30,000  Level Jacksonville Center
Sun 11:44:40 AM 28.4717 -84.3167 279° West 431 496 30,000  Level Jacksonville Center
Sun 11:45:40 AM 28.4911 -84.4539 279° West 437 503 30,000  Level Jacksonville Center
Sun 11:46:40 AM 28.5103 -84.5769 280° West 443 510 30,000  Level Jacksonville Center
Sun 11:47:40 AM 28.5314 -84.7119 280° West 443 510 30,000  Level Jacksonville Center
Sun 11:48:40 AM 28.5481 -84.8542 278° West 448 516 30,000  Level Jacksonville Center
Sun 11:49:40 AM 28.5689 -84.9869 280° West 443 510 30,000  Level Jacksonville Center
Sun 11:50:40 AM 28.5875 -85.1244 279° West 443 510 30,000  Level Jacksonville Center
Sun 11:51:40 AM 28.6061 -85.2594 279° West 443 510 30,000  Level Jacksonville Center
Sun 11:52:40 AM 28.6242 -85.3994 278° West 450 518 30,000  Level Jacksonville Center
Sun 11:53:40 AM 28.6422 -85.5372 279° West 450 518 30,000  Level Jacksonville Center
Sun 11:54:40 AM 28.6622 -85.6772 279° West 450 518 30,000  Level Jacksonville Center
Sun 11:55:40 AM 28.6803 -85.8128 279° West 450 518 30,000  Level Jacksonville Center
Sun 11:56:40 AM 28.6997 -85.9575 279° West 445 512 30,000  Level Jacksonville Center
Sun 11:57:40 AM 28.7172 -86.0931 278° West 445 512 30,000  Level Jacksonville Center
Sun 11:58:40 AM 28.7347 -86.2286 278° West 445 512 30,000  Level Jacksonville Center
Sun 11:59:40 AM 28.7519 -86.3617 278° West 439 505 30,000  Level Jacksonville Center
Sun 12:00:40 PM 28.7672 -86.4947 277° West 432 497 30,000  Level Jacksonville Center
Sun 12:01:40 PM 28.7842 -86.6281 278° West 427 491 30,000  Level Jacksonville Center
Sun 12:02:40 PM 28.8033 -86.7614 279° West 427 491 30,000  Level Jacksonville Center
Sun 12:03:40 PM 28.8200 -86.8947 278° West 427 491 30,000  Level Jacksonville Center
Sun 12:04:40 PM 28.8347 -87.0233 277° West 422 486 30,000  Level Jacksonville Center
Sun 12:05:40 PM 28.8533 -87.1567 279° West 422 486 30,000  Level Jacksonville Center
Sun 12:06:40 PM 28.8697 -87.2903 278° West 429 494 30,000  Level Jacksonville Center
Sun 12:07:57 PM 28.8881 -87.4497 278° West 422 486 30,000  Level Houston Center
Sun 12:08:59 PM 28.9061 -87.6075 277° West 420 483 30,000  Level Houston Center
Sun 12:10:00 PM 28.9217 -87.7386 278° West 420 483 30,000  Level Houston Center
Sun 12:11:02 PM 28.9369 -87.8711 278° West 419 482 30,000  Level Houston Center
Sun 12:12:04 PM 28.9511 -88.0039 277° West 422 486 30,000  Level Houston Center
Sun 12:13:06 PM 28.9667 -88.1267 278° West 421 484 30,000  Level Houston Center
Sun 12:14:08 PM 28.9831 -88.2847 277° West 419 482 30,000  Level Houston Center
Sun 12:15:10 PM 28.9986 -88.4172 278° West 422 486 30,000  Level Houston Center
Sun 12:16:11 PM 29.0136 -88.5522 277° West 426 490 30,000  Level Houston Center
Sun 12:17:13 PM 29.0278 -88.6872 277° West 427 491 30,000  Level Houston Center
Sun 12:18:15 PM 29.0414 -88.8231 277° West 432 497 30,000  Level Houston Center
Sun 12:19:17 PM 29.0561 -88.9572 277° West 427 491 30,000  Level Houston Center
Sun 12:20:19 PM 29.0719 -89.0886 278° West 421 484 30,000  Level Houston Center
Sun 12:21:21 PM 29.0886 -89.2503 277° West 425 489 30,000  Level Houston Center
Sun 12:22:23 PM 29.1025 -89.3819 277° West 421 484 30,000  Level Houston Center
Sun 12:23:25 PM 29.1164 -89.5139 277° West 419 482 30,000  Level Houston Center
Sun 12:24:27 PM 29.1103 -89.6481 267° West 424 488 30,000  Level Houston Center
Sun 12:25:29 PM 29.1019 -89.7772 266° West 415 478 30,000  Level Houston Center
Sun 12:26:31 PM 29.0933 -89.9069 266° West 410 472 30,000  Level Houston Center
Sun 12:27:33 PM 29.0831 -90.0631 266° West 409 471 30,000  Level Houston Center
Sun 12:28:35 PM 29.0925 -90.1911 275° West 412 474 30,000  Level Houston Center
Sun 12:29:37 PM 29.1169 -90.3194 282° West 412 474 30,000  Level Houston Center
Sun 12:30:39 PM 29.1392 -90.4444 282° West 405 466 30,000  Level Houston Center
Sun 12:31:41 PM 29.1628 -90.5722 282° West 408 470 30,000  Level Houston Center
Sun 12:32:43 PM 29.1869 -90.7031 282° West 418 481 30,000  Level Houston Center
Sun 12:33:45 PM 29.2106 -90.8336 282° West 419 482 30,000  Level Houston Center
Sun 12:34:47 PM 29.2411 -90.9925 282° West 423 487 30,000  Level Houston Center
Sun 12:35:49 PM 29.2642 -91.1264 281° West 427 491 30,000 968 Level Houston Center
Sun 12:36:51 PM 29.2881 -91.2569 282° West 423 487 32,000 968 Climbing Houston Center
Sun 12:37:53 PM 29.3111 -91.3844 282° West 413 475 32,000  Level Houston Center
Sun 12:38:55 PM 29.3342 -91.5139 282° West 415 478 32,000 871 Level Houston Center
Sun 12:39:57 PM 29.3561 -91.6414 281° West 411 473 33,800 1,452 Climbing Houston Center
Sun 12:40:59 PM 29.3814 -91.7861 281° West 392 451 35,000 968 Climbing Houston Center
Sun 12:42:01 PM 29.4019 -91.9036 281° West 381 438 35,800 1,258 Climbing Houston Center
Sun 12:43:03 PM 29.4197 -92.0164 280° West 368 423 37,600 1,210 Climbing Houston Center
Sun 12:44:05 PM 29.4417 -92.1272 283° West 359 413 38,300 823 Climbing Houston Center
Sun 12:45:07 PM 29.4614 -92.2442 281° West 367 422 39,300 823 Climbing Houston Center
Sun 12:46:09 PM 29.4814 -92.3606 281° West 370 426 40,000 339 Climbing Houston Center
Sun 12:47:11 PM 29.5056 -92.4997 281° West 372 428 40,000  Level Houston Center
Sun 12:48:14 PM 29.5253 -92.6183 281° West 374 430 40,000  Level Houston Center
Sun 12:49:16 PM 29.5456 -92.7344 281° West 371 427 40,000  Level Houston Center
Sun 12:50:18 PM 29.5650 -92.8522 281° West 374 430 40,000  Level Houston Center
Sun 12:51:20 PM 29.5839 -92.9686 281° West 372 428 40,000  Level Houston Center
Sun 12:53:24 PM 29.6267 -93.2247 281° West 371 427 40,000  Level Houston Center
Sun 12:54:26 PM 29.6450 -93.3411 280° West 370 426 40,000  Level Houston Center
Sun 12:55:28 PM 29.6650 -93.4575 281° West 369 425 40,000  Level Houston Center
Sun 12:56:30 PM 29.6836 -93.5736 280° West 368 423 40,000  Level Houston Center
Sun 12:57:32 PM 29.7019 -93.6906 280° West 370 426 40,000  Level Houston Center
Sun 12:58:34 PM 29.7208 -93.8089 280° West 374 430 40,000  Level Houston Center
Sun 12:59:36 PM 29.7397 -93.9261 281° West 372 428 40,000  Level Houston Center
Sun 01:00:38 PM 29.7619 -94.0683 280° West 374 430 40,000  Level Houston Center
Sun 01:01:40 PM 29.7806 -94.1858 280° West 373 429 40,000  Level Houston Center
Sun 01:02:42 PM 29.7997 -94.3072 280° West 373 429 40,000  Level Houston Center
Sun 01:03:44 PM 29.8178 -94.4258 280° West 377 434 40,000  Level Houston Center
Sun 01:04:46 PM 29.8358 -94.5439 280° West 376 433 40,000  Level Houston Center
Sun 01:05:47 PM 29.8539 -94.6619 280° West 377 434 40,000  Level Houston Center
Sun 01:06:49 PM 29.8728 -94.7789 281° West 375 432 40,000  Level Houston Center
Sun 01:07:51 PM 29.8936 -94.9172 280° West 370 426 40,000  Level Houston Center
Sun 01:08:53 PM 29.9117 -95.0333 280° West 371 427 40,000  Level Houston Center
Sun 01:09:55 PM 29.9286 -95.1492 280° West 370 426 40,000  Level Houston Center
Sun 01:10:57 PM 29.9461 -95.2636 280° West 368 423 40,000  Level Houston Center
Sun 01:11:59 PM 29.9525 -95.3778 274° West 371 427 40,000  Level Houston Center
Sun 01:13:01 PM 29.9236 -95.5144 256° West 371 427 40,000  Level Houston Center
Sun 01:14:03 PM 29.8983 -95.6269 255° West 367 422 40,000  Level Houston Center
Sun 01:15:05 PM 29.8739 -95.7406 256° West 368 423 40,000  Level Houston Center
Sun 01:16:07 PM 29.8489 -95.8542 256° West 369 425 40,000  Level Houston Center
Sun 01:17:09 PM 29.8250 -95.9667 256° West 365 420 40,000 -194 Level Houston Center
Sun 01:18:11 PM 29.8008 -96.0797 256° West 358 412 39,600 -726 Descending Houston Center
Sun 01:19:13 PM 29.7814 -96.2153 261° West 361 415 38,500 -1,016 Descending Houston Center
Sun 01:20:15 PM 29.7894 -96.3283 275° West 357 411 37,500 -919 Descending Houston Center
Sun 01:21:17 PM 29.7983 -96.4406 275° West 356 410 36,600 -919 Descending Houston Center
Sun 01:22:19 PM 29.8067 -96.5558 275° West 362 417 35,600 -919 Descending Houston Center
Sun 01:23:21 PM 29.8153 -96.6706 275° West 363 418 34,700 -968 Descending Houston Center
Sun 01:24:23 PM 29.8236 -96.7892 275° West 374 430 33,600 -1,984 Descending Houston Center
Sun 01:25:25 PM 29.8339 -96.9294 275° West 370 426 30,600 -2,537 Descending Houston Center
Sun 01:26:26 PM 29.8425 -97.0428 275° West 364 419 28,400 -2,049 Descending Houston Center
Sun 01:27:28 PM 29.8494 -97.1517 274° West 351 404 26,400 -1,984 Descending Houston Center
Sun 01:28:30 PM 29.8572 -97.2578 275° West 337 388 24,300 -1,984 Descending Houston Center
Sun 01:29:32 PM 29.8653 -97.3639 275° West 334 384 22,300 -2,081 Descending Houston Center
Sun 01:30:34 PM 29.8733 -97.4861 274° West 321 369 20,000 -2,092 Descending Houston Center
Sun 01:31:21 PM 29.8786 -97.5678 274° West 313 360 18,500 -1,839 Descending Houston Center
Sun 01:31:36 PM 29.8797 -97.5925 273° West 320 368 18,100 -1,948 Descending Houston Center
Sun 01:32:38 PM 29.8881 -97.7022 275° West 343 395 16,000 -2,123 Descending Houston Center
Sun 01:33:46 PM 29.8956 -97.8283 274° West 345 397 13,500 -1,728 Descending Houston Center
Sun 01:34:43 PM 29.8714 -97.9217 253° West 336 387 12,400 -1,311 Descending Houston Center
Sun 01:35:45 PM 29.8278 -98.0267 244° Southwest 338 389 10,900 -1,210 Descending Houston Center
Sun 01:36:47 PM 29.7869 -98.1236 244° Southwest 336 387 9,900 -1,161 Descending Houston Center
Sun 01:37:49 PM 29.7481 -98.2153 244° Southwest 300 345 8,500 -1,355 Descending Houston Center
Sun 01:38:51 PM 29.7117 -98.3006 244° Southwest 297 342 7,100 -1,210 Descending Houston Center
Sun 01:39:53 PM 29.6942 -98.3942 258° West 281 323 6,000 -1,318 Descending Houston Center
Sun 01:41:03 PM 29.6733 -98.4819 255° West 244 281 4,200 -1,452 Descending Houston Center
Sun 01:41:57 PM 29.6344 -98.5369 231° Southwest 231 266 3,000 -771 Descending Houston Center
Sun 01:42:52 PM 29.5986 -98.5581 207° Southwest 152 175 2,800 -621 Descending Houston Center
Sun 01:43:53 PM 29.5725 -98.5253 132° Southeast 119 137 1,800 -887 Descending Houston Center
Sun 01:44:47 PM 29.5508 -98.4967 131° Southeast 134 154 1,100 -771 Descending Houston Center
Sun 01:45:03 PM 29.5456 -98.4872 123° Southeast 135 155 900 -750 Descending Houston Center
Sun 01:47:00 PM 29.5340 -98.4691 221° Southwest  Level Estimated
Sun 01:54:00 PM 29.5333 -98.4667 16° North  Level FlightAware Approximate

Login

Don't have an account? Register now (free) for customized features, flight alerts, and more!